S/y Squall — ZCIF2 — position and weather

sailwx.info

Track history (hours):
 
Tides and Currents Weather Stations Pressure Air Temp Water Temp Dewpoint Dewpoint Depression Visibility Wind Speed Wind Dir Waves Ship Positions

S/y Squall

Last reported at 2016-Aug-23 21:19 UTC. Time now 2016-Aug-27 09:52 UTC.
Position N 38°52' E 001°18'.

Length 52 m; draft 5.2 m.

Type: Sailing vessel. MMSI: 319811000.

Date/timePositionNaut miles runAvg speedWind from/ knotsBaromVisibWave heightAir tempDewpointWater temp
2016-Aug-23 21:19N 38°52' E 001°18'9 1.7
2016-Aug-23 16:08N 38°46' E 001°26'0 0.0
2016-Aug-23 14:29N 38°46' E 001°26'0 0.0
2016-Aug-23 13:32N 38°46' E 001°26'0 0.0
2016-Aug-23 11:08N 38°46' E 001°26'0 0.0
2016-Aug-23 08:20N 38°46' E 001°26'  
2016-Aug-20 23:08N 38°46' E 001°26'0 0.0
2016-Aug-20 18:26N 38°46' E 001°26'0 0.0
2016-Aug-20 17:32N 38°46' E 001°26'0 0.0
2016-Aug-20 16:32N 38°46' E 001°26'0 0.2
2016-Aug-20 15:26N 38°46' E 001°26'1 0.7
2016-Aug-20 14:33N 38°46' E 001°26'0 0.1
2016-Aug-20 13:29N 38°46' E 001°26'0 0.0
2016-Aug-20 10:30N 38°46' E 001°26'6 6.0
2016-Aug-20 09:33N 38°51' E 001°28'6 0.1
2016-Aug-18 09:33N 38°55' E 001°34'9 9.4
2016-Aug-18 08:33N 38°54' E 001°46'1110.6
2016-Aug-18 07:33N 38°54' E 001°59'1111.0
2016-Aug-18 06:33N 38°54' E 002°13'1110.6
2016-Aug-18 05:33N 38°53' E 002°27'1110.6
2016-Aug-18 04:33N 38°53' E 002°41'1210.4
2016-Aug-18 03:25N 38°51' E 002°56'910.7
2016-Aug-18 02:33N 38°50' E 003°08'1310.8
2016-Aug-18 01:20N 38°49' E 003°24'1211.1
2016-Aug-18 00:16N 38°48' E 003°39'22910.3
2016-Aug-17 02:06N 38°36' E 008°33'4610.1
2016-Aug-16 21:33N 38°33' E 009°31'1110.8
2016-Aug-16 20:33N 38°32' E 009°45'1110.6
2016-Aug-16 19:28N 38°32' E 009°60'1410.3
2016-Aug-16 18:08N 38°32' E 010°17'610.1
2016-Aug-16 17:33N 38°31' E 010°25'2210.3
2016-Aug-16 15:22N 38°31' E 010°53'10810.0
2016-Aug-16 04:33N 38°24' E 013°11'1110.7
2016-Aug-16 03:33N 38°24' E 013°25'1010.3
2016-Aug-16 02:33N 38°23' E 013°38'1110.6
2016-Aug-16 01:33N 38°22' E 013°52'2110.4
2016-Aug-15 23:33N 38°21' E 014°18'1110.6
2016-Aug-15 22:31N 38°21' E 014°32'1010.5
2016-Aug-15 21:33N 38°20' E 014°45'1010.5
2016-Aug-15 20:33N 38°19' E 014°58'1110.7
2016-Aug-15 19:33N 38°19' E 015°12'1010.3
2016-Aug-15 18:33N 38°19' E 015°25'10 9.7
2016-Aug-15 17:33N 38°19' E 015°37'5 4.7
2016-Aug-15 16:34N 38°14' E 015°38'10 9.8
2016-Aug-15 15:33N 38°04' E 015°36'7 7.4
2016-Aug-15 14:33N 37°57' E 015°38'  
Track history (hours):
 
Tides and Currents Weather Stations Pressure Air Temp Water Temp Dewpoint Dewpoint Depression Visibility Wind Speed Wind Dir Waves Ship Positions

S/y Squall

Last reported at 2016-Aug-23 21:19 UTC. Time now 2016-Aug-27 09:52 UTC.
Position N 38°52' E 001°18'.

Length 52 m; draft 5.2 m.

Type: Sailing vessel. MMSI: 319811000.

Date/timePositionNaut miles runAvg speedWind from/ knotsBaromVisibWave heightAir tempDewpointWater temp
2016-Aug-23 21:19N 38°52' E 001°18'9 1.7
2016-Aug-23 16:08N 38°46' E 001°26'0 0.0
2016-Aug-23 14:29N 38°46' E 001°26'0 0.0
2016-Aug-23 13:32N 38°46' E 001°26'0 0.0
2016-Aug-23 11:08N 38°46' E 001°26'0 0.0
2016-Aug-23 08:20N 38°46' E 001°26'  
2016-Aug-20 23:08N 38°46' E 001°26'0 0.0
2016-Aug-20 18:26N 38°46' E 001°26'0 0.0
2016-Aug-20 17:32N 38°46' E 001°26'0 0.0
2016-Aug-20 16:32N 38°46' E 001°26'0 0.2
2016-Aug-20 15:26N 38°46' E 001°26'1 0.7
2016-Aug-20 14:33N 38°46' E 001°26'0 0.1
2016-Aug-20 13:29N 38°46' E 001°26'0 0.0
2016-Aug-20 10:30N 38°46' E 001°26'6 6.0
2016-Aug-20 09:33N 38°51' E 001°28'6 0.1
2016-Aug-18 09:33N 38°55' E 001°34'9 9.4
2016-Aug-18 08:33N 38°54' E 001°46'1110.6
2016-Aug-18 07:33N 38°54' E 001°59'1111.0
2016-Aug-18 06:33N 38°54' E 002°13'1110.6
2016-Aug-18 05:33N 38°53' E 002°27'1110.6
2016-Aug-18 04:33N 38°53' E 002°41'1210.4
2016-Aug-18 03:25N 38°51' E 002°56'910.7
2016-Aug-18 02:33N 38°50' E 003°08'1310.8
2016-Aug-18 01:20N 38°49' E 003°24'1211.1
2016-Aug-18 00:16N 38°48' E 003°39'22910.3
2016-Aug-17 02:06N 38°36' E 008°33'4610.1
2016-Aug-16 21:33N 38°33' E 009°31'1110.8
2016-Aug-16 20:33N 38°32' E 009°45'1110.6
2016-Aug-16 19:28N 38°32' E 009°60'1410.3
2016-Aug-16 18:08N 38°32' E 010°17'610.1
2016-Aug-16 17:33N 38°31' E 010°25'2210.3
2016-Aug-16 15:22N 38°31' E 010°53'10810.0
2016-Aug-16 04:33N 38°24' E 013°11'1110.7
2016-Aug-16 03:33N 38°24' E 013°25'1010.3
2016-Aug-16 02:33N 38°23' E 013°38'1110.6
2016-Aug-16 01:33N 38°22' E 013°52'2110.4
2016-Aug-15 23:33N 38°21' E 014°18'1110.6
2016-Aug-15 22:31N 38°21' E 014°32'1010.5
2016-Aug-15 21:33N 38°20' E 014°45'1010.5
2016-Aug-15 20:33N 38°19' E 014°58'1110.7
2016-Aug-15 19:33N 38°19' E 015°12'1010.3
2016-Aug-15 18:33N 38°19' E 015°25'10 9.7
2016-Aug-15 17:33N 38°19' E 015°37'5 4.7
2016-Aug-15 16:34N 38°14' E 015°38'10 9.8
2016-Aug-15 15:33N 38°04' E 015°36'7 7.4
2016-Aug-15 14:33N 37°57' E 015°38'  

Dump ship's entire track history